createdAt,value
2023-05-25T00:00:41.814Z,16.73
2023-05-25T00:01:49.570Z,16.77
2023-05-25T00:02:54.731Z,16.77
2023-05-25T00:03:57.088Z,16.75
2023-05-25T00:05:01.089Z,16.71
2023-05-25T00:06:03.282Z,16.74
2023-05-25T00:07:05.438Z,16.69
2023-05-25T00:08:07.566Z,16.72
2023-05-25T00:09:09.881Z,16.69
2023-05-25T00:10:12.191Z,16.68
2023-05-25T00:11:14.726Z,16.69
2023-05-25T00:12:16.904Z,16.67
2023-05-25T00:13:19.036Z,16.65
2023-05-25T00:14:21.602Z,16.63
2023-05-25T00:15:23.745Z,16.61
2023-05-25T00:16:26.029Z,16.62
2023-05-25T00:17:30.132Z,16.60
2023-05-25T00:18:38.021Z,16.59
2023-05-25T00:19:42.513Z,16.61
2023-05-25T00:20:44.737Z,16.59
2023-05-25T00:21:48.464Z,16.57
2023-05-25T00:22:52.261Z,16.55
2023-05-25T00:23:54.478Z,16.57
2023-05-25T00:24:56.631Z,16.60
2023-05-25T00:25:59.495Z,16.63
2023-05-25T00:27:02.489Z,16.64
2023-05-25T00:28:04.874Z,16.64
2023-05-25T00:29:07.370Z,16.64
2023-05-25T00:30:09.787Z,16.69
2023-05-25T00:31:11.991Z,16.68
2023-05-25T00:32:14.152Z,16.69
2023-05-25T00:33:16.525Z,16.65
2023-05-25T00:34:18.679Z,16.66
2023-05-25T00:35:21.078Z,16.68
2023-05-25T00:36:24.580Z,16.68
2023-05-25T00:37:26.686Z,16.69
2023-05-25T00:38:29.008Z,16.76
2023-05-25T00:39:31.161Z,16.73
2023-05-25T00:40:33.722Z,16.80
2023-05-25T00:41:41.658Z,16.75
2023-05-25T00:42:44.095Z,16.74
2023-05-25T00:43:49.515Z,16.72
2023-05-25T00:44:51.656Z,16.73
2023-05-25T00:45:54.057Z,16.78
2023-05-25T00:46:56.201Z,16.82
2023-05-25T00:47:59.270Z,16.87
2023-05-25T00:49:01.494Z,16.91
2023-05-25T00:50:04.142Z,16.97
2023-05-25T00:51:06.339Z,16.94
2023-05-25T00:52:08.752Z,16.95
2023-05-25T00:53:12.222Z,16.95
2023-05-25T00:54:16.071Z,16.93
2023-05-25T00:55:18.909Z,16.93
2023-05-25T00:56:28.334Z,16.91
2023-05-25T00:57:34.323Z,16.93
2023-05-25T00:58:39.088Z,16.92
2023-05-25T00:59:49.865Z,16.91
2023-05-25T01:00:53.500Z,16.97
2023-05-25T01:01:56.118Z,16.99
2023-05-25T01:02:59.872Z,16.99
2023-05-25T01:04:03.559Z,16.98
2023-05-25T01:05:06.814Z,16.99
2023-05-25T01:06:12.014Z,16.95
2023-05-25T01:07:22.748Z,16.94
2023-05-25T01:08:25.768Z,16.88
2023-05-25T01:09:28.702Z,16.95
2023-05-25T01:10:33.391Z,16.95
2023-05-25T01:11:37.440Z,16.89
2023-05-25T01:12:40.697Z,16.77
2023-05-25T01:13:42.976Z,16.68
2023-05-25T01:14:48.219Z,16.68
2023-05-25T01:15:51.455Z,16.61
2023-05-25T01:16:55.329Z,16.60
2023-05-25T01:17:59.682Z,16.57
2023-05-25T01:19:02.467Z,16.43
2023-05-25T01:20:11.097Z,16.38
2023-05-25T01:21:18.179Z,16.36
2023-05-25T01:22:43.125Z,16.31
2023-05-25T01:23:53.133Z,16.31
2023-05-25T01:25:07.848Z,16.29
2023-05-25T01:26:14.213Z,16.20
2023-05-25T01:27:23.725Z,16.19
2023-05-25T01:28:30.444Z,16.16
2023-05-25T01:29:34.155Z,16.14
2023-05-25T01:30:37.508Z,16.12
2023-05-25T01:31:41.064Z,16.13
2023-05-25T01:32:43.736Z,16.11
2023-05-25T01:33:46.826Z,16.06
2023-05-25T01:34:50.684Z,16.03
2023-05-25T01:35:52.857Z,15.99
2023-05-25T01:36:55.091Z,15.93
2023-05-25T01:37:58.558Z,15.93
2023-05-25T01:39:01.104Z,15.93
2023-05-25T01:40:07.120Z,15.94
2023-05-25T01:41:09.252Z,15.91
2023-05-25T01:42:11.462Z,15.92
2023-05-25T01:43:13.620Z,15.93
2023-05-25T01:44:15.939Z,15.89
2023-05-25T01:45:18.136Z,15.88
2023-05-25T01:46:30.725Z,15.89
2023-05-25T01:47:39.935Z,15.86
2023-05-25T01:49:04.085Z,15.84
2023-05-25T01:50:08.980Z,15.83
2023-05-25T01:51:17.703Z,15.82
2023-05-25T01:52:23.215Z,15.80
2023-05-25T01:53:36.518Z,15.80
2023-05-25T01:54:41.073Z,15.77
2023-05-25T01:55:44.084Z,15.74
2023-05-25T01:56:48.288Z,15.70
2023-05-25T01:57:52.788Z,15.69
2023-05-25T01:58:56.167Z,15.66
2023-05-25T02:00:00.402Z,15.62
2023-05-25T02:01:02.700Z,15.61
2023-05-25T02:02:06.245Z,15.56
2023-05-25T02:04:12.535Z,15.48
2023-05-25T02:05:14.819Z,15.45
2023-05-25T02:06:17.356Z,15.40
2023-05-25T02:07:19.487Z,15.39
2023-05-25T02:08:21.869Z,15.40
2023-05-25T02:09:24.022Z,15.38
2023-05-25T02:10:26.254Z,15.41
2023-05-25T02:11:28.471Z,15.44
2023-05-25T02:12:31.006Z,15.47
2023-05-25T02:13:33.136Z,15.49
2023-05-25T02:14:35.442Z,15.55
2023-05-25T02:15:37.623Z,15.52
2023-05-25T02:16:39.893Z,15.53
2023-05-25T02:17:43.495Z,15.57
2023-05-25T02:18:46.007Z,15.53
2023-05-25T02:19:49.502Z,15.49
2023-05-25T02:20:51.869Z,15.45
2023-05-25T02:21:54.066Z,15.38
2023-05-25T02:22:56.236Z,15.36
2023-05-25T02:23:58.475Z,15.37
2023-05-25T02:25:00.811Z,15.39
2023-05-25T02:26:02.952Z,15.43
2023-05-25T02:27:06.241Z,15.41
2023-05-25T02:28:08.388Z,15.40
2023-05-25T02:29:11.662Z,15.37
2023-05-25T02:30:14.224Z,15.32
2023-05-25T02:31:16.409Z,15.31
2023-05-25T02:32:18.649Z,15.31
2023-05-25T02:33:20.841Z,15.33
2023-05-25T02:34:23.012Z,15.36
2023-05-25T02:35:25.152Z,15.38
2023-05-25T02:36:28.380Z,15.40
2023-05-25T02:37:30.536Z,15.38
2023-05-25T02:38:32.679Z,15.36
2023-05-25T02:39:34.794Z,15.31
2023-05-25T02:40:37.007Z,15.31
2023-05-25T02:41:39.397Z,15.36
2023-05-25T02:42:41.533Z,15.34
2023-05-25T02:43:43.706Z,15.31
2023-05-25T02:44:48.432Z,15.33
2023-05-25T02:45:50.611Z,15.30
2023-05-25T02:46:52.693Z,15.29
2023-05-25T02:47:55.058Z,15.27
2023-05-25T02:48:59.039Z,15.26
2023-05-25T02:50:01.221Z,15.23
2023-05-25T02:51:03.892Z,15.22
2023-05-25T02:52:06.443Z,15.19
2023-05-25T02:53:08.605Z,15.24
2023-05-25T02:54:10.828Z,15.22
2023-05-25T02:55:15.636Z,15.17
2023-05-25T02:56:17.790Z,15.19
2023-05-25T02:57:20.009Z,15.17
2023-05-25T02:58:22.565Z,15.17
2023-05-25T02:59:27.332Z,15.14
2023-05-25T03:00:29.464Z,15.13
2023-05-25T03:01:31.887Z,15.12
2023-05-25T03:02:35.106Z,15.09
2023-05-25T03:03:37.508Z,15.07
2023-05-25T03:04:39.771Z,15.04
2023-05-25T03:05:41.998Z,15.05
2023-05-25T03:06:45.312Z,15.04
2023-05-25T03:07:47.991Z,15.00
2023-05-25T03:08:50.154Z,14.97
2023-05-25T03:09:52.965Z,15.00
2023-05-25T03:10:55.072Z,15.06
2023-05-25T03:11:57.692Z,15.04
2023-05-25T03:12:59.910Z,15.04
2023-05-25T03:14:02.086Z,15.04
2023-05-25T03:15:05.140Z,15.02
2023-05-25T03:16:07.773Z,14.99
2023-05-25T03:17:09.976Z,14.97
2023-05-25T03:18:12.208Z,14.93
2023-05-25T03:19:14.329Z,14.95
2023-05-25T03:20:16.921Z,14.92
2023-05-25T03:21:19.117Z,14.89
2023-05-25T03:22:21.268Z,14.86
2023-05-25T03:23:23.420Z,14.85
2023-05-25T03:24:26.804Z,14.87
2023-05-25T03:25:28.972Z,14.88
2023-05-25T03:26:32.314Z,14.87
2023-05-25T03:27:34.668Z,14.89
2023-05-25T03:28:36.793Z,14.88
2023-05-25T03:29:38.931Z,14.91
2023-05-25T03:30:41.155Z,14.90
2023-05-25T03:31:43.275Z,14.93
2023-05-25T03:32:45.488Z,14.98
2023-05-25T03:33:47.596Z,14.94
2023-05-25T03:34:49.770Z,14.92
2023-05-25T03:35:51.901Z,14.94
2023-05-25T03:36:55.151Z,14.98
2023-05-25T03:37:57.287Z,14.98
2023-05-25T03:38:59.532Z,15.00
2023-05-25T03:40:01.842Z,14.98
2023-05-25T03:41:04.368Z,15.01
2023-05-25T03:42:06.844Z,15.08
2023-05-25T03:43:08.914Z,15.06
2023-05-25T03:44:11.252Z,15.05
2023-05-25T03:45:13.332Z,15.06
2023-05-25T03:46:15.486Z,15.06
2023-05-25T03:47:17.660Z,15.08
2023-05-25T03:48:19.776Z,15.12
2023-05-25T03:49:21.929Z,15.16
2023-05-25T03:50:24.065Z,15.17
2023-05-25T03:51:26.344Z,15.18
2023-05-25T03:52:28.760Z,15.24
2023-05-25T03:53:31.281Z,15.27
2023-05-25T03:54:34.075Z,15.28
2023-05-25T03:55:36.347Z,15.27
2023-05-25T03:56:38.447Z,15.29
2023-05-25T03:57:41.469Z,15.28
2023-05-25T03:58:43.525Z,15.31
2023-05-25T03:59:45.722Z,15.37
2023-05-25T04:00:50.582Z,15.37
2023-05-25T04:01:52.682Z,15.41
2023-05-25T04:02:54.957Z,15.45
2023-05-25T04:03:57.527Z,15.48
2023-05-25T04:04:59.902Z,15.50
2023-05-25T04:06:02.237Z,15.56
2023-05-25T04:07:04.355Z,15.60
2023-05-25T04:08:08.477Z,15.63
2023-05-25T04:09:10.599Z,15.66
2023-05-25T04:10:12.702Z,15.67
2023-05-25T04:11:14.853Z,15.73
2023-05-25T04:12:17.101Z,15.81
2023-05-25T04:13:19.278Z,15.79
2023-05-25T04:14:21.629Z,15.83
2023-05-25T04:15:23.764Z,15.87
2023-05-25T04:16:26.588Z,15.89
2023-05-25T04:17:28.832Z,15.91
2023-05-25T04:18:31.051Z,15.91
2023-05-25T04:19:33.218Z,15.97
2023-05-25T04:20:35.867Z,16.05
2023-05-25T04:21:38.101Z,16.08
2023-05-25T04:22:40.199Z,16.09
2023-05-25T04:23:43.193Z,16.10
2023-05-25T04:24:46.061Z,16.19
2023-05-25T04:25:50.375Z,16.20
2023-05-25T04:26:52.436Z,16.27
2023-05-25T04:27:56.763Z,16.25
2023-05-25T04:28:59.001Z,16.24
2023-05-25T04:30:01.623Z,16.23
2023-05-25T04:31:05.470Z,16.33
2023-05-25T04:32:09.753Z,16.33
2023-05-25T04:33:12.043Z,16.40
2023-05-25T04:34:15.186Z,16.44
2023-05-25T04:35:20.859Z,16.48
2023-05-25T04:36:23.684Z,16.54
2023-05-25T04:37:30.571Z,16.50
2023-05-25T04:38:33.359Z,16.49
2023-05-25T04:39:35.558Z,16.55
2023-05-25T04:40:37.742Z,16.59
2023-05-25T04:41:39.873Z,16.59
2023-05-25T04:42:42.087Z,16.53
2023-05-25T04:44:04.658Z,16.63
2023-05-25T04:45:10.542Z,16.64
2023-05-25T04:46:13.933Z,16.62
2023-05-25T04:47:17.162Z,16.67
2023-05-25T04:48:19.385Z,16.67
2023-05-25T04:49:22.079Z,16.67
2023-05-25T04:50:24.347Z,16.64
2023-05-25T04:51:26.566Z,16.61
2023-05-25T04:52:28.707Z,16.64
2023-05-25T04:53:32.282Z,16.66
2023-05-25T04:54:34.586Z,16.69
2023-05-25T04:55:36.730Z,16.68
2023-05-25T04:56:38.886Z,16.74
2023-05-25T04:57:41.170Z,16.77
2023-05-25T04:58:44.051Z,16.84
2023-05-25T04:59:46.191Z,16.85
2023-05-25T05:00:48.933Z,16.86
2023-05-25T05:01:52.490Z,16.76
2023-05-25T05:02:58.813Z,16.80
2023-05-25T05:04:01.052Z,16.83
2023-05-25T05:05:03.949Z,16.93
2023-05-25T05:06:06.428Z,17.06
2023-05-25T05:07:09.232Z,17.08
2023-05-25T05:08:11.392Z,17.12
2023-05-25T05:09:13.542Z,17.25
2023-05-25T05:10:15.785Z,17.29
2023-05-25T05:11:17.976Z,17.32
2023-05-25T05:12:20.385Z,17.41
2023-05-25T05:13:22.688Z,17.47
2023-05-25T05:14:24.912Z,17.55
2023-05-25T05:15:27.078Z,17.64
2023-05-25T05:16:33.841Z,17.69
2023-05-25T05:17:36.297Z,17.72
2023-05-25T05:18:38.480Z,17.72
2023-05-25T05:19:40.590Z,17.62
2023-05-25T05:20:42.851Z,17.63
2023-05-25T05:21:45.112Z,17.69
2023-05-25T05:22:47.330Z,17.75
2023-05-25T05:23:49.491Z,17.78
2023-05-25T05:24:51.649Z,17.88
2023-05-25T05:25:53.836Z,17.97
2023-05-25T05:26:58.977Z,18.01
2023-05-25T05:28:01.607Z,18.00
2023-05-25T05:29:04.649Z,18.06
2023-05-25T05:30:07.701Z,18.06
2023-05-25T05:31:09.910Z,18.01
2023-05-25T05:32:12.097Z,17.96
2023-05-25T05:33:14.608Z,18.00
2023-05-25T05:34:17.039Z,18.03
2023-05-25T05:35:19.254Z,18.12
2023-05-25T05:36:21.425Z,18.14
2023-05-25T05:37:23.601Z,18.20
2023-05-25T05:38:25.928Z,18.23
2023-05-25T05:39:28.514Z,18.26
2023-05-25T05:40:31.064Z,18.31
2023-05-25T05:41:33.240Z,18.28
2023-05-25T05:42:35.478Z,18.27
2023-05-25T05:43:39.778Z,18.27
2023-05-25T05:44:41.906Z,18.33
2023-05-25T05:45:44.224Z,18.38
2023-05-25T05:46:46.494Z,18.46
2023-05-25T05:47:48.655Z,18.57
2023-05-25T05:48:50.918Z,18.63
2023-05-25T05:49:53.059Z,18.71
2023-05-25T05:50:55.228Z,18.71
2023-05-25T05:51:57.929Z,18.78
2023-05-25T05:53:00.201Z,18.86
2023-05-25T05:54:02.516Z,18.94
2023-05-25T05:55:05.038Z,19.04
2023-05-25T05:56:17.162Z,19.14
2023-05-25T05:57:19.316Z,19.17
2023-05-25T05:58:21.506Z,19.27
2023-05-25T05:59:24.064Z,19.28
2023-05-25T06:00:26.314Z,19.35
2023-05-25T06:01:28.431Z,19.37
2023-05-25T06:02:30.807Z,19.38
2023-05-25T06:03:33.094Z,19.45
2023-05-25T06:04:35.422Z,19.32
2023-05-25T06:05:37.582Z,19.30
2023-05-25T06:06:42.165Z,19.31
2023-05-25T06:07:44.272Z,19.25
2023-05-25T06:08:46.320Z,19.23
2023-05-25T06:09:48.467Z,19.27
2023-05-25T06:10:53.897Z,19.34
2023-05-25T06:11:56.092Z,19.42
2023-05-25T06:12:58.194Z,19.43
2023-05-25T06:14:00.382Z,19.35
2023-05-25T06:15:02.591Z,19.36
2023-05-25T06:16:05.037Z,19.50
2023-05-25T06:17:07.326Z,19.54
2023-05-25T06:18:09.571Z,19.60
2023-05-25T06:19:11.849Z,19.65
2023-05-25T06:20:15.180Z,19.71
2023-05-25T06:21:17.505Z,19.69
2023-05-25T06:22:19.688Z,19.68
2023-05-25T06:23:22.278Z,19.69
2023-05-25T06:24:25.274Z,19.77
2023-05-25T06:25:27.418Z,19.83
2023-05-25T06:26:29.640Z,19.91
2023-05-25T06:27:31.806Z,20.00
2023-05-25T06:28:34.239Z,20.08
2023-05-25T06:29:36.467Z,20.18
2023-05-25T06:30:38.630Z,20.17
2023-05-25T06:31:40.878Z,20.29
2023-05-25T06:32:43.688Z,20.36
2023-05-25T06:33:46.080Z,20.38
2023-05-25T06:34:48.250Z,20.38
2023-05-25T06:35:51.038Z,20.37
2023-05-25T06:36:53.300Z,20.37
2023-05-25T06:37:55.983Z,20.42
2023-05-25T06:38:58.104Z,20.47
2023-05-25T06:40:00.346Z,20.52
2023-05-25T06:41:04.876Z,20.55
2023-05-25T06:42:07.152Z,20.60
2023-05-25T06:43:09.154Z,20.67
2023-05-25T06:44:11.378Z,20.73
2023-05-25T06:45:13.648Z,20.81
2023-05-25T06:46:18.534Z,20.86
2023-05-25T06:47:20.937Z,20.83
2023-05-25T06:48:23.111Z,20.74
2023-05-25T06:49:25.913Z,20.85
2023-05-25T06:50:28.364Z,20.79
2023-05-25T06:51:31.324Z,20.77
2023-05-25T06:52:34.031Z,20.79
2023-05-25T06:53:37.538Z,20.79
2023-05-25T06:54:39.841Z,20.83
2023-05-25T06:55:42.123Z,20.88
2023-05-25T06:56:44.383Z,20.96
2023-05-25T06:57:46.698Z,21.01
2023-05-25T06:58:49.520Z,20.93
2023-05-25T06:59:51.765Z,20.93
2023-05-25T07:00:53.979Z,20.97
2023-05-25T07:01:56.418Z,21.01
2023-05-25T07:02:58.827Z,21.02
2023-05-25T07:04:01.013Z,20.97
2023-05-25T07:05:05.929Z,20.98
2023-05-25T07:06:08.322Z,20.90
2023-05-25T07:07:12.665Z,20.99
2023-05-25T07:08:14.843Z,21.13
2023-05-25T07:09:19.717Z,21.18
2023-05-25T07:10:23.005Z,21.19
2023-05-25T07:11:26.154Z,21.37
2023-05-25T07:12:28.294Z,21.44
2023-05-25T07:13:30.532Z,21.49
2023-05-25T07:14:34.340Z,21.56
2023-05-25T07:15:36.548Z,21.61
2023-05-25T07:16:38.809Z,21.65
2023-05-25T07:17:41.081Z,21.72
2023-05-25T07:18:43.229Z,21.79
2023-05-25T07:19:45.482Z,21.71
2023-05-25T07:20:48.372Z,21.79
2023-05-25T07:21:50.576Z,21.70
2023-05-25T07:22:53.502Z,21.59
2023-05-25T07:23:55.930Z,21.59
2023-05-25T07:24:58.622Z,21.59
2023-05-25T07:26:01.090Z,21.69
2023-05-25T07:27:04.456Z,21.85
2023-05-25T07:28:06.725Z,21.92
2023-05-25T07:29:08.929Z,21.94
2023-05-25T07:30:11.558Z,22.07
2023-05-25T07:31:13.757Z,22.21
2023-05-25T07:32:16.071Z,22.28
2023-05-25T07:33:18.220Z,22.22
2023-05-25T07:34:20.795Z,22.17
2023-05-25T07:35:22.917Z,22.07
2023-05-25T07:36:25.195Z,22.16
2023-05-25T07:37:27.374Z,22.20
2023-05-25T07:38:29.581Z,22.27
2023-05-25T07:39:31.701Z,22.44
2023-05-25T07:40:34.132Z,22.57
2023-05-25T07:41:36.927Z,22.67
2023-05-25T07:42:39.365Z,22.58
2023-05-25T07:43:41.812Z,22.61
2023-05-25T07:44:44.055Z,22.77
2023-05-25T07:45:46.350Z,22.86
2023-05-25T07:46:48.793Z,22.80
2023-05-25T07:47:51.227Z,22.91
2023-05-25T07:48:54.738Z,22.98
2023-05-25T07:49:57.022Z,23.13
2023-05-25T07:50:59.219Z,23.19
2023-05-25T07:52:03.624Z,23.21
2023-05-25T07:53:05.925Z,23.08
2023-05-25T07:54:08.099Z,23.18
2023-05-25T07:55:10.612Z,23.37
2023-05-25T07:56:12.816Z,23.04
2023-05-25T07:57:15.102Z,22.76
2023-05-25T07:58:17.268Z,22.56
2023-05-25T07:59:19.428Z,22.43
2023-05-25T08:00:21.837Z,22.40
2023-05-25T08:01:26.760Z,22.44
2023-05-25T08:02:29.288Z,22.67
2023-05-25T08:03:44.372Z,22.95
2023-05-25T08:04:52.152Z,23.15
2023-05-25T08:05:54.386Z,23.15
2023-05-25T08:06:57.296Z,22.98
2023-05-25T08:07:59.482Z,22.76
2023-05-25T08:09:03.873Z,22.81
2023-05-25T08:10:06.568Z,22.90
2023-05-25T08:11:08.739Z,23.06
2023-05-25T08:12:27.350Z,23.10
2023-05-25T08:13:33.119Z,23.08
2023-05-25T08:14:35.312Z,23.16
2023-05-25T08:15:37.486Z,23.27
2023-05-25T08:16:39.666Z,23.39
2023-05-25T08:18:00.894Z,23.30
2023-05-25T08:19:03.400Z,23.10
2023-05-25T08:20:08.885Z,22.91
2023-05-25T08:21:11.137Z,23.01
2023-05-25T08:22:13.856Z,23.09
2023-05-25T08:23:16.278Z,23.18
2023-05-25T08:24:18.431Z,23.20
2023-05-25T08:25:20.888Z,23.29
2023-05-25T08:27:28.205Z,23.72
2023-05-25T08:28:30.402Z,23.96
2023-05-25T08:29:32.576Z,23.87
2023-05-25T08:30:34.855Z,23.93
2023-05-25T08:31:37.426Z,23.93
2023-05-25T08:32:39.653Z,23.82
2023-05-25T08:33:41.860Z,23.78
2023-05-25T08:34:44.004Z,23.66
2023-05-25T08:35:46.369Z,23.57
2023-05-25T08:36:48.861Z,23.70
2023-05-25T08:37:50.997Z,23.80
2023-05-25T08:38:53.362Z,24.08
2023-05-25T08:39:55.476Z,24.13
2023-05-25T08:41:07.321Z,24.19
2023-05-25T08:42:09.637Z,24.36
2023-05-25T08:43:11.880Z,24.36
2023-05-25T08:44:15.515Z,23.87
2023-05-25T08:45:33.469Z,23.42
2023-05-25T08:46:37.901Z,23.47
2023-05-25T08:47:44.232Z,23.41
2023-05-25T08:48:48.032Z,23.44
2023-05-25T08:49:51.587Z,23.43
2023-05-25T08:50:54.706Z,23.41
2023-05-25T08:51:57.271Z,23.42
2023-05-25T08:53:03.032Z,23.45
2023-05-25T08:54:12.497Z,23.11
2023-05-25T08:55:15.156Z,23.28
2023-05-25T08:56:19.869Z,23.64
2023-05-25T08:57:27.093Z,23.81
2023-05-25T08:58:33.947Z,23.83
2023-05-25T08:59:57.950Z,24.14
2023-05-25T09:01:04.023Z,24.41
2023-05-25T09:02:18.631Z,24.64
2023-05-25T09:03:21.882Z,24.85
2023-05-25T09:04:24.629Z,24.77
2023-05-25T09:05:27.278Z,24.54
2023-05-25T09:06:29.949Z,24.48
2023-05-25T09:07:32.681Z,24.14
2023-05-25T09:08:37.566Z,23.97
2023-05-25T09:09:40.514Z,23.63
2023-05-25T09:10:42.936Z,23.62
2023-05-25T09:11:45.831Z,23.50
2023-05-25T09:12:48.521Z,23.99
2023-05-25T09:13:50.879Z,24.14
2023-05-25T09:14:53.806Z,24.34
2023-05-25T09:15:56.324Z,24.58
2023-05-25T09:16:59.172Z,24.91
2023-05-25T09:18:01.404Z,25.34
2023-05-25T09:19:03.563Z,25.87
2023-05-25T09:20:06.531Z,26.14
2023-05-25T09:21:08.743Z,26.38
2023-05-25T09:22:15.579Z,26.77
2023-05-25T09:23:19.254Z,27.38
2023-05-25T09:24:22.289Z,27.52
2023-05-25T09:25:26.349Z,27.42
2023-05-25T09:26:28.762Z,27.71
2023-05-25T09:27:35.547Z,28.20
2023-05-25T09:28:46.631Z,28.47
2023-05-25T09:29:50.103Z,28.74
2023-05-25T09:30:52.305Z,28.82
2023-05-25T09:31:54.493Z,28.27
2023-05-25T09:32:56.775Z,28.59
2023-05-25T09:34:00.412Z,28.41
2023-05-25T09:35:10.338Z,28.62
2023-05-25T09:36:15.325Z,28.73
2023-05-25T09:37:19.487Z,28.83
2023-05-25T09:38:22.275Z,28.72
2023-05-25T09:39:25.675Z,27.66
2023-05-25T09:40:27.883Z,26.76
2023-05-25T09:41:30.180Z,26.17
2023-05-25T09:42:33.623Z,25.67
2023-05-25T09:43:44.580Z,25.76
2023-05-25T09:44:48.997Z,26.20
2023-05-25T09:45:54.409Z,26.42
2023-05-25T09:46:56.566Z,26.86
2023-05-25T09:47:59.509Z,26.96
2023-05-25T09:49:01.812Z,26.35
2023-05-25T09:50:04.283Z,25.89
2023-05-25T09:51:08.213Z,25.32
2023-05-25T09:52:12.496Z,25.09
2023-05-25T09:53:14.680Z,25.11
2023-05-25T09:54:16.850Z,25.61
2023-05-25T09:55:19.070Z,26.53
2023-05-25T09:56:21.814Z,26.53
2023-05-25T09:57:23.925Z,26.36
2023-05-25T09:58:27.050Z,26.25
2023-05-25T09:59:29.528Z,26.21
2023-05-25T10:00:31.931Z,25.95
2023-05-25T10:01:34.549Z,25.82
2023-05-25T10:02:37.024Z,25.34
2023-05-25T10:03:59.293Z,25.50
2023-05-25T10:05:07.490Z,26.80
2023-05-25T10:06:09.870Z,27.24
2023-05-25T10:07:12.040Z,27.29
2023-05-25T10:08:14.402Z,26.75
2023-05-25T10:09:18.977Z,26.16
2023-05-25T10:10:21.491Z,25.71
2023-05-25T10:11:24.600Z,25.48
2023-05-25T10:12:26.831Z,25.74
2023-05-25T10:13:30.702Z,26.09
2023-05-25T10:14:36.427Z,26.46
2023-05-25T10:15:40.786Z,26.37
2023-05-25T10:16:42.870Z,26.89
2023-05-25T10:17:53.745Z,27.41
2023-05-25T10:19:06.441Z,27.89
2023-05-25T10:20:09.779Z,28.46
2023-05-25T10:21:11.978Z,28.64
2023-05-25T10:22:17.045Z,28.93
2023-05-25T10:23:20.581Z,28.03
2023-05-25T10:24:57.124Z,28.01
2023-05-25T10:26:00.860Z,27.66
2023-05-25T10:28:31.309Z,26.27
2023-05-25T10:29:33.893Z,25.64
2023-05-25T10:30:37.103Z,25.64
2023-05-25T10:31:39.861Z,25.60
2023-05-25T10:32:43.062Z,25.43
2023-05-25T10:33:49.309Z,25.24
2023-05-25T10:34:56.862Z,25.34
2023-05-25T10:36:09.540Z,25.44
2023-05-25T10:37:14.798Z,25.91
2023-05-25T10:38:19.241Z,26.49
2023-05-25T10:39:21.359Z,27.09
2023-05-25T10:40:24.016Z,27.70
2023-05-25T10:41:26.705Z,28.20
2023-05-25T10:42:29.895Z,28.60
2023-05-25T10:43:32.549Z,29.08
2023-05-25T10:44:34.706Z,29.30
2023-05-25T10:45:36.890Z,28.78
2023-05-25T10:46:39.616Z,28.45
2023-05-25T10:47:42.416Z,28.80
2023-05-25T10:48:49.280Z,28.39
2023-05-25T10:49:58.350Z,28.09
2023-05-25T10:51:00.540Z,27.93
2023-05-25T10:52:03.817Z,27.69
2023-05-25T10:53:07.801Z,27.13
2023-05-25T10:54:13.696Z,26.54
2023-05-25T10:55:15.834Z,26.30
2023-05-25T10:56:18.197Z,26.03
2023-05-25T10:57:21.996Z,25.81
2023-05-25T10:58:27.379Z,25.55
2023-05-25T10:59:29.542Z,25.32
2023-05-25T11:00:32.094Z,25.23
2023-05-25T11:01:50.361Z,25.32
2023-05-25T11:02:55.058Z,25.38
2023-05-25T11:03:58.164Z,25.21
2023-05-25T11:05:27.939Z,25.13
2023-05-25T11:06:44.264Z,25.24
2023-05-25T11:07:54.005Z,25.38
2023-05-25T11:08:57.470Z,25.45
2023-05-25T11:09:59.839Z,25.53
2023-05-25T11:11:01.995Z,25.71
2023-05-25T11:12:04.629Z,25.99
2023-05-25T11:13:31.404Z,26.54
2023-05-25T11:14:36.156Z,26.70
2023-05-25T11:15:39.568Z,26.63
2023-05-25T11:16:42.178Z,26.58
2023-05-25T11:18:05.667Z,26.51
2023-05-25T11:19:10.486Z,26.34
2023-05-25T11:20:23.119Z,26.33
2023-05-25T11:21:28.549Z,26.36
2023-05-25T11:22:30.671Z,26.59
2023-05-25T11:23:32.955Z,27.23
2023-05-25T11:24:35.117Z,27.33
2023-05-25T11:25:38.927Z,27.02
2023-05-25T11:26:57.834Z,26.52
2023-05-25T11:28:03.929Z,26.30
2023-05-25T11:29:14.696Z,26.01
2023-05-25T11:30:18.025Z,25.88
2023-05-25T11:31:23.532Z,25.61
2023-05-25T11:32:26.695Z,25.53
2023-05-25T11:33:28.998Z,25.47
2023-05-25T11:34:34.444Z,25.58
2023-05-25T11:35:39.715Z,25.84
2023-05-25T11:36:42.462Z,26.18
2023-05-25T11:37:50.769Z,26.40
2023-05-25T11:39:04.656Z,26.60
2023-05-25T11:40:13.449Z,27.34
2023-05-25T11:41:16.957Z,26.84
2023-05-25T11:42:23.219Z,26.20
2023-05-25T11:43:26.424Z,26.17
2023-05-25T11:44:31.013Z,26.03
2023-05-25T11:45:38.158Z,25.59
2023-05-25T11:46:43.581Z,25.31
2023-05-25T11:47:46.209Z,25.43
2023-05-25T11:48:52.242Z,25.50
2023-05-25T11:49:55.620Z,25.53
2023-05-25T11:51:07.140Z,25.42
2023-05-25T11:52:09.638Z,25.71
2023-05-25T11:53:12.027Z,26.65
2023-05-25T11:54:30.129Z,27.12
2023-05-25T11:55:32.368Z,27.64
2023-05-25T11:56:35.975Z,28.36
2023-05-25T11:57:39.253Z,29.19
2023-05-25T11:58:42.044Z,30.05
2023-05-25T11:59:53.656Z,29.95
2023-05-25T12:00:55.767Z,29.87
2023-05-25T12:01:57.863Z,29.92
2023-05-25T12:03:00.120Z,29.29
2023-05-25T12:04:09.399Z,28.59
2023-05-25T12:05:11.964Z,27.93
2023-05-25T12:06:36.916Z,27.59
2023-05-25T12:07:46.880Z,26.78
2023-05-25T12:08:49.178Z,26.37
2023-05-25T12:09:51.507Z,26.42
2023-05-25T12:10:53.668Z,26.98
2023-05-25T12:11:55.983Z,27.97
2023-05-25T12:13:02.223Z,28.55
2023-05-25T12:14:06.005Z,28.82
2023-05-25T12:15:13.268Z,29.28
2023-05-25T12:16:15.530Z,29.85
2023-05-25T12:17:20.171Z,29.82
2023-05-25T12:18:22.429Z,29.81
2023-05-25T12:19:24.654Z,30.18
2023-05-25T12:20:26.852Z,30.50
2023-05-25T12:21:29.334Z,30.77
2023-05-25T12:22:32.519Z,30.70
2023-05-25T12:23:35.557Z,30.68
2023-05-25T12:24:37.819Z,30.79
2023-05-25T12:25:50.232Z,30.61
2023-05-25T12:27:01.955Z,30.31
2023-05-25T12:28:14.927Z,30.60
2023-05-25T12:29:17.561Z,30.50
2023-05-25T12:30:28.079Z,30.69
2023-05-25T12:31:35.460Z,30.77
2023-05-25T12:33:02.567Z,30.86
2023-05-25T12:34:09.413Z,31.07
2023-05-25T12:35:11.582Z,31.20
2023-05-25T12:36:14.341Z,31.67
2023-05-25T12:37:22.839Z,31.56
2023-05-25T12:38:25.158Z,31.49
2023-05-25T12:39:30.073Z,31.53
2023-05-25T12:40:32.237Z,31.04
2023-05-25T12:41:54.348Z,31.48
2023-05-25T12:42:57.355Z,31.58
2023-05-25T12:43:59.558Z,32.05
2023-05-25T12:45:02.056Z,32.70
2023-05-25T12:46:04.329Z,33.24
2023-05-25T12:47:11.741Z,33.42
2023-05-25T12:48:13.991Z,33.00
2023-05-25T12:49:30.988Z,32.56
2023-05-25T12:50:33.070Z,32.43
2023-05-25T12:51:39.295Z,32.24
2023-05-25T12:52:43.901Z,32.18
2023-05-25T12:53:50.083Z,32.45
2023-05-25T12:54:52.366Z,32.27
2023-05-25T12:56:02.126Z,31.48
2023-05-25T12:57:08.381Z,31.27
2023-05-25T12:58:27.204Z,31.67
2023-05-25T12:59:31.321Z,32.51
2023-05-25T13:00:37.969Z,32.64
2023-05-25T13:01:40.952Z,32.32
2023-05-25T13:02:45.800Z,31.09
2023-05-25T13:03:48.713Z,30.24
2023-05-25T13:04:50.937Z,30.00
2023-05-25T13:06:00.314Z,29.72
2023-05-25T13:07:03.481Z,29.39
2023-05-25T13:08:06.271Z,30.15
2023-05-25T13:09:09.179Z,30.68
2023-05-25T13:10:12.822Z,31.07
2023-05-25T13:11:14.978Z,31.62
2023-05-25T13:12:18.074Z,31.91
2023-05-25T13:13:20.428Z,32.00
2023-05-25T13:14:23.444Z,32.53
2023-05-25T13:15:26.957Z,32.83
2023-05-25T13:16:32.606Z,32.73
2023-05-25T13:17:35.764Z,32.61
2023-05-25T13:18:37.954Z,32.57
2023-05-25T13:19:40.562Z,33.28
2023-05-25T13:20:43.019Z,33.28
2023-05-25T13:21:45.983Z,33.20
2023-05-25T13:22:49.967Z,33.02
2023-05-25T13:23:52.258Z,33.44
2023-05-25T13:24:54.459Z,34.14
2023-05-25T13:25:56.600Z,34.27
2023-05-25T13:26:58.809Z,33.54
2023-05-25T13:28:01.276Z,32.72
2023-05-25T13:29:03.878Z,32.36
2023-05-25T13:30:06.720Z,32.57
2023-05-25T13:31:08.850Z,32.75
2023-05-25T13:32:11.218Z,32.63
2023-05-25T13:33:13.503Z,32.53
2023-05-25T13:34:15.787Z,32.32
2023-05-25T13:35:36.526Z,32.26
2023-05-25T13:36:38.750Z,31.51
2023-05-25T13:37:41.462Z,31.42
2023-05-25T13:38:43.644Z,31.28
2023-05-25T13:39:45.788Z,31.42
2023-05-25T13:40:48.068Z,31.70
2023-05-25T13:41:50.207Z,31.99
2023-05-25T13:42:52.881Z,32.57
2023-05-25T13:43:55.117Z,32.21
2023-05-25T13:44:57.261Z,31.78
2023-05-25T13:45:59.456Z,31.60
2023-05-25T13:47:01.666Z,31.64